HTZA/ZNZ METAR and TAF weather

Enter ICAO airport designator
Station Type Date Time Source
HTZA METAR 2023/01/30 11:00 UTC NOAA

HTZA 301100Z 30015KT 9999 FEW024 32/25 Q1010 NOSIG


Station Type Date Time Source
HTZA Decoded METAR 2023/01/30 11:00 UTC NOAA

Zanzibar / Kisauni, Tanzania (HTZA) 06-13S 039-13E 15M
Jan 30, 2023 - 06:00 AM EST / 2023.01.30 1100 UTC
Wind: from the WNW (300 degrees) at 17 MPH (15 KT):0
Visibility: greater than 7 mile(s):0
Sky conditions: mostly clear
Temperature: 89 F (32 C)
Heat index: 100.6 F (38.1 C):1
Dew Point: 77 F (25 C)
Relative Humidity: 66%
Pressure (altimeter): 29.83 in. Hg (1010 hPa)
ob: HTZA 301100Z 30015KT 9999 FEW024 32/25 Q1010 NOSIG
cycle: 11

Station Type Date Time Source
HTZA TAF 2023/01/30 12:30 UTC NOAA

TAF HTZA 301100Z 3012/3112 06015KT 9999 SCT022
BECMG 3017/3019 04005KT
BECMG 3102/3104 36010KT BKN018 BKN080
BECMG 3110/3112 06015KT SCT022

Example: see airport list